createdAt,value
2019-01-21T00:00:46.013Z,-1.90
2019-01-21T00:03:14.923Z,-2.00
2019-01-21T00:05:41.463Z,-2.00
2019-01-21T00:08:08.922Z,-2.00
2019-01-21T00:10:35.381Z,-2.00
2019-01-21T00:13:01.718Z,-1.90
2019-01-21T00:15:28.137Z,-2.00
2019-01-21T00:17:54.496Z,-1.90
2019-01-21T00:20:20.963Z,-1.90
2019-01-21T00:22:47.383Z,-1.90
2019-01-21T00:25:13.753Z,-1.80
2019-01-21T00:27:41.287Z,-1.90
2019-01-21T00:30:09.967Z,-1.90
2019-01-21T00:32:36.407Z,-1.80
2019-01-21T00:35:05.023Z,-1.80
2019-01-21T00:37:31.399Z,-1.80
2019-01-21T00:39:57.865Z,-1.90
2019-01-21T00:42:24.272Z,-1.90
2019-01-21T00:44:50.841Z,-1.80
2019-01-21T00:47:17.561Z,-1.80
2019-01-21T00:49:44.056Z,-1.90
2019-01-21T00:52:10.529Z,-1.90
2019-01-21T00:54:36.897Z,-1.90
2019-01-21T00:57:03.427Z,-2.00
2019-01-21T00:59:29.764Z,-1.90
2019-01-21T01:01:56.230Z,-1.90
2019-01-21T01:04:22.656Z,-1.90
2019-01-21T01:06:49.182Z,-1.90
2019-01-21T01:09:15.656Z,-1.90
2019-01-21T01:11:42.084Z,-2.00
2019-01-21T01:14:08.561Z,-2.00
2019-01-21T01:16:34.966Z,-2.10
2019-01-21T01:19:01.437Z,-2.10
2019-01-21T01:21:27.874Z,-2.10
2019-01-21T01:23:54.426Z,-2.20
2019-01-21T01:26:20.917Z,-2.30
2019-01-21T01:28:47.307Z,-2.40
2019-01-21T01:31:13.811Z,-2.30
2019-01-21T01:33:40.230Z,-2.30
2019-01-21T01:36:06.740Z,-2.20
2019-01-21T01:38:33.161Z,-2.30
2019-01-21T01:40:59.685Z,-2.20
2019-01-21T01:43:26.212Z,-2.20
2019-01-21T01:45:52.593Z,-2.30
2019-01-21T01:48:19.055Z,-2.20
2019-01-21T01:50:45.445Z,-2.20
2019-01-21T01:53:12.103Z,-2.20
2019-01-21T01:55:38.598Z,-2.20
2019-01-21T01:58:05.047Z,-2.20
2019-01-21T02:00:32.597Z,-2.20
2019-01-21T02:02:59.087Z,-2.10
2019-01-21T02:05:25.667Z,-2.10
2019-01-21T02:07:52.225Z,-2.00
2019-01-21T02:10:18.704Z,-1.90
2019-01-21T02:12:45.392Z,-2.00
2019-01-21T02:15:13.849Z,-1.90
2019-01-21T02:17:40.247Z,-1.90
2019-01-21T02:20:14.830Z,-1.80
2019-01-21T02:22:42.864Z,-1.80
2019-01-21T02:25:09.933Z,-1.80
2019-01-21T02:27:42.936Z,-1.80
2019-01-21T02:30:22.099Z,-1.80
2019-01-21T02:33:00.636Z,-1.80
2019-01-21T02:35:33.683Z,-1.80
2019-01-21T02:38:12.250Z,-1.80
2019-01-21T02:40:45.212Z,-1.80
2019-01-21T02:43:30.840Z,-1.70
2019-01-21T02:46:13.552Z,-1.70
2019-01-21T02:48:49.531Z,-1.70
2019-01-21T02:51:36.711Z,-1.80
2019-01-21T02:54:10.009Z,-1.70
2019-01-21T02:56:52.155Z,-1.70
2019-01-21T02:59:34.045Z,-1.70
2019-01-21T03:02:21.076Z,-1.80
2019-01-21T03:05:25.501Z,-1.80
2019-01-21T03:08:02.119Z,-1.70
2019-01-21T03:10:51.470Z,-1.80
2019-01-21T03:13:30.676Z,-1.80
2019-01-21T03:16:00.931Z,-1.80
2019-01-21T03:18:31.536Z,-1.70
2019-01-21T03:21:24.843Z,-1.70
2019-01-21T03:24:13.497Z,-1.70
2019-01-21T03:26:46.650Z,-1.80
2019-01-21T03:29:22.992Z,-1.70
2019-01-21T03:32:12.483Z,-1.80
2019-01-21T03:34:58.116Z,-1.70
2019-01-21T03:37:28.342Z,-1.80
2019-01-21T03:40:02.121Z,-1.80
2019-01-21T03:42:44.576Z,-1.70
2019-01-21T03:45:34.463Z,-1.70
2019-01-21T03:48:16.433Z,-1.80
2019-01-21T03:50:51.112Z,-1.70
2019-01-21T03:53:39.618Z,-1.80
2019-01-21T03:56:07.924Z,-1.80
2019-01-21T03:58:44.349Z,-1.70
2019-01-21T04:01:17.380Z,-1.80
2019-01-21T04:03:59.703Z,-1.80
2019-01-21T04:06:29.913Z,-1.90
2019-01-21T04:09:14.785Z,-1.90
2019-01-21T04:11:54.710Z,-1.90
2019-01-21T04:14:36.923Z,-1.90
2019-01-21T04:17:36.473Z,-2.00
2019-01-21T04:20:09.709Z,-2.00
2019-01-21T04:22:42.697Z,-2.10
2019-01-21T04:25:13.062Z,-2.10
2019-01-21T04:27:57.829Z,-2.10
2019-01-21T04:30:46.569Z,-2.20
2019-01-21T04:33:28.645Z,-2.20
2019-01-21T04:36:04.952Z,-2.20
2019-01-21T04:38:38.161Z,-2.30
2019-01-21T04:41:08.380Z,-2.40
2019-01-21T04:43:50.109Z,-2.40
2019-01-21T04:46:23.135Z,-2.40
2019-01-21T04:49:13.342Z,-2.50
2019-01-21T04:51:58.618Z,-2.50
2019-01-21T04:54:40.664Z,-2.50
2019-01-21T04:57:26.621Z,-2.70
2019-01-21T05:00:02.782Z,-2.70
2019-01-21T05:02:52.648Z,-2.70
2019-01-21T05:05:28.929Z,-2.80
2019-01-21T05:08:19.320Z,-2.90
2019-01-21T05:10:49.601Z,-3.00
2019-01-21T05:13:28.865Z,-2.90
2019-01-21T05:16:07.793Z,-2.90
2019-01-21T05:18:50.046Z,-3.00
2019-01-21T05:21:41.835Z,-3.00
2019-01-21T05:24:24.048Z,-3.00
2019-01-21T05:27:09.313Z,-3.00
2019-01-21T05:30:00.920Z,-3.00
2019-01-21T05:32:36.928Z,-2.90
2019-01-21T05:35:28.518Z,-3.00
2019-01-21T05:38:07.433Z,-3.00
2019-01-21T05:40:46.763Z,-3.10
2019-01-21T05:43:50.578Z,-3.10
2019-01-21T05:46:29.950Z,-3.20
2019-01-21T05:49:24.592Z,-3.20
2019-01-21T05:52:24.199Z,-3.20
2019-01-21T05:55:20.611Z,-3.10
2019-01-21T05:58:13.444Z,-3.10
2019-01-21T06:00:55.779Z,-3.10
2019-01-21T06:03:41.352Z,-3.10
2019-01-21T06:06:14.222Z,-3.10
2019-01-21T06:08:50.422Z,-3.10
2019-01-21T06:11:28.983Z,-3.10
2019-01-21T06:14:05.274Z,-3.10
2019-01-21T06:16:50.669Z,-3.10
2019-01-21T06:19:20.851Z,-3.10
2019-01-21T06:21:56.649Z,-3.10
2019-01-21T06:24:35.205Z,-3.10
2019-01-21T06:27:29.267Z,-3.10
2019-01-21T06:30:17.942Z,-3.10
2019-01-21T06:33:07.420Z,-3.10
2019-01-21T06:35:37.642Z,-3.10
2019-01-21T06:38:16.817Z,-3.10
2019-01-21T06:40:59.125Z,-3.10
2019-01-21T06:43:56.678Z,-3.10
2019-01-21T06:46:56.093Z,-3.10
2019-01-21T06:49:28.900Z,-3.20
2019-01-21T06:52:08.109Z,-3.10
2019-01-21T06:54:56.011Z,-3.10
2019-01-21T06:57:43.833Z,-3.10
2019-01-21T07:00:35.476Z,-3.20
2019-01-21T07:03:17.586Z,-3.20
2019-01-21T07:05:56.531Z,-3.20
2019-01-21T07:08:32.589Z,-3.20
2019-01-21T07:11:23.561Z,-3.30
2019-01-21T07:13:53.863Z,-3.20
2019-01-21T07:16:27.889Z,-3.30
2019-01-21T07:19:24.325Z,-3.30
2019-01-21T07:22:03.466Z,-3.20
2019-01-21T07:24:45.549Z,-3.30
2019-01-21T07:27:35.659Z,-3.30
2019-01-21T07:30:11.521Z,-3.30
2019-01-21T07:32:44.476Z,-3.40
2019-01-21T07:35:20.433Z,-3.40
2019-01-21T07:37:56.730Z,-3.50
2019-01-21T07:40:32.916Z,-3.50
2019-01-21T07:43:11.963Z,-3.60
2019-01-21T07:45:56.979Z,-3.50
2019-01-21T07:48:45.263Z,-3.50
2019-01-21T07:51:21.684Z,-3.50
2019-01-21T07:53:54.819Z,-3.50
2019-01-21T07:56:41.880Z,-3.60
2019-01-21T07:59:28.746Z,-3.60
2019-01-21T08:02:07.933Z,-3.60
2019-01-21T08:04:40.952Z,-3.50
2019-01-21T08:07:11.145Z,-3.50
2019-01-21T08:09:50.549Z,-3.60
2019-01-21T08:12:26.867Z,-3.50
2019-01-21T08:15:00.409Z,-3.50
2019-01-21T08:17:42.324Z,-3.50
2019-01-21T08:20:12.511Z,-3.50
2019-01-21T08:22:58.381Z,-3.50
2019-01-21T08:25:40.677Z,-3.50
2019-01-21T08:28:27.448Z,-3.50
2019-01-21T08:31:00.884Z,-3.60
2019-01-21T08:33:37.359Z,-3.60
2019-01-21T08:36:07.668Z,-3.50
2019-01-21T08:38:41.637Z,-3.50
2019-01-21T08:41:21.645Z,-3.40
2019-01-21T08:43:57.992Z,-3.40
2019-01-21T08:46:40.177Z,-3.40
2019-01-21T08:49:17.160Z,-3.30
2019-01-21T08:52:11.193Z,-3.20
2019-01-21T08:54:58.350Z,-3.20
2019-01-21T08:57:37.608Z,-3.20
2019-01-21T09:00:16.252Z,-3.10
2019-01-21T09:03:06.509Z,-3.10
2019-01-21T09:05:39.711Z,-3.10
2019-01-21T09:08:10.081Z,-3.10
2019-01-21T09:10:46.009Z,-3.10
2019-01-21T09:13:42.426Z,-3.00
2019-01-21T09:16:21.616Z,-3.00
2019-01-21T09:19:01.054Z,-2.90
2019-01-21T09:21:31.533Z,-2.90
2019-01-21T09:24:18.495Z,-2.90
2019-01-21T09:26:54.343Z,-3.10
2019-01-21T09:29:34.075Z,-3.10
2019-01-21T09:32:04.678Z,-3.10
2019-01-21T09:35:04.408Z,-3.00
2019-01-21T09:37:40.817Z,-3.00
2019-01-21T09:40:27.319Z,-3.00
2019-01-21T09:43:12.794Z,-3.00
2019-01-21T09:46:00.083Z,-3.00
2019-01-21T09:48:26.733Z,-3.00
2019-01-21T09:50:56.210Z,-3.00
2019-01-21T09:53:22.780Z,-2.90
2019-01-21T09:55:49.979Z,-2.90
2019-01-21T09:58:19.327Z,-2.90
2019-01-21T10:00:46.226Z,-2.90
2019-01-21T10:03:13.751Z,-2.90
2019-01-21T10:05:43.340Z,-2.90
2019-01-21T10:08:26.100Z,-2.80
2019-01-21T10:11:03.331Z,-2.80
2019-01-21T10:14:06.244Z,-2.80
2019-01-21T10:16:37.379Z,-2.70
2019-01-21T10:19:26.240Z,-2.70
2019-01-21T10:22:08.836Z,-2.70
2019-01-21T10:24:54.573Z,-2.70
2019-01-21T10:27:43.821Z,-2.70
2019-01-21T10:30:20.663Z,-2.60
2019-01-21T10:33:10.079Z,-2.50
2019-01-21T10:35:55.453Z,-2.40
2019-01-21T10:38:59.523Z,-2.40
2019-01-21T10:41:35.660Z,-2.60
2019-01-21T10:44:18.511Z,-2.70
2019-01-21T10:47:12.595Z,-2.70
2019-01-21T10:49:45.743Z,-2.70
2019-01-21T10:52:36.912Z,-2.60
2019-01-21T10:55:09.851Z,-2.60
2019-01-21T10:57:47.124Z,-2.60
2019-01-21T11:00:38.425Z,-2.50
2019-01-21T11:03:18.072Z,-2.60
2019-01-21T11:05:51.339Z,-2.50
2019-01-21T11:08:38.139Z,-2.50
2019-01-21T11:11:28.891Z,-2.40
2019-01-21T11:14:32.815Z,-2.40
2019-01-21T11:17:22.180Z,-2.40
2019-01-21T11:20:03.761Z,-2.30
2019-01-21T11:22:29.904Z,-2.20
2019-01-21T11:25:06.265Z,-2.20
2019-01-21T11:27:48.083Z,-2.20
2019-01-21T11:30:26.941Z,-2.10
2019-01-21T11:33:20.168Z,-2.20
2019-01-21T11:36:05.386Z,-2.00
2019-01-21T11:38:47.603Z,-2.10
2019-01-21T11:41:17.759Z,-2.00
2019-01-21T11:44:07.813Z,-1.90
2019-01-21T11:46:43.472Z,-1.90
2019-01-21T11:49:13.705Z,-1.90
2019-01-21T11:51:55.981Z,-1.90
2019-01-21T11:54:49.278Z,-1.90
2019-01-21T11:57:34.953Z,-1.80
2019-01-21T12:00:07.782Z,-1.70
2019-01-21T12:02:53.045Z,-1.70
2019-01-21T12:05:23.464Z,-1.70
2019-01-21T12:07:59.635Z,-1.70
2019-01-21T12:10:45.193Z,-1.60
2019-01-21T12:13:33.422Z,-1.60
2019-01-21T12:16:25.251Z,-1.60
2019-01-21T12:19:28.943Z,-1.50
2019-01-21T12:22:04.864Z,-1.50
2019-01-21T12:24:31.457Z,-1.50
2019-01-21T12:27:36.280Z,-1.50
2019-01-21T12:30:27.652Z,-1.60
2019-01-21T12:33:31.778Z,-1.60
2019-01-21T12:36:04.806Z,-1.60
2019-01-21T12:38:46.893Z,-1.50
2019-01-21T12:41:26.484Z,-1.50
2019-01-21T12:44:19.107Z,-1.50
2019-01-21T12:46:58.587Z,-1.50
2019-01-21T12:49:40.502Z,-1.50
2019-01-21T12:52:13.609Z,-1.50
2019-01-21T12:54:56.614Z,-1.60
2019-01-21T12:57:44.658Z,-1.60
2019-01-21T13:00:17.766Z,-1.60
2019-01-21T13:03:11.837Z,-1.60
2019-01-21T13:05:44.899Z,-1.70
2019-01-21T13:08:30.077Z,-1.80
2019-01-21T13:11:06.532Z,-1.90
2019-01-21T13:13:42.767Z,-1.90
2019-01-21T13:16:12.983Z,-2.00
2019-01-21T13:19:05.954Z,-2.00
2019-01-21T13:21:52.862Z,-2.00
2019-01-21T13:24:31.893Z,-2.10
2019-01-21T13:27:21.975Z,-2.10
2019-01-21T13:29:50.783Z,-2.10
2019-01-21T13:32:20.981Z,-2.10
2019-01-21T13:35:00.462Z,-2.10
2019-01-21T13:37:36.576Z,-2.10
2019-01-21T13:40:29.976Z,-2.10
2019-01-21T13:43:19.936Z,-2.00
2019-01-21T13:46:23.711Z,-2.10
2019-01-21T13:48:56.906Z,-2.10
2019-01-21T13:51:46.926Z,-2.10
2019-01-21T13:54:36.682Z,-2.10
2019-01-21T13:57:13.312Z,-2.20
2019-01-21T13:59:46.653Z,-2.20
2019-01-21T14:02:16.930Z,-2.20
2019-01-21T14:05:05.284Z,-2.20
2019-01-21T14:07:35.718Z,-2.20
2019-01-21T14:10:07.253Z,-2.30
2019-01-21T14:12:38.513Z,-2.30
2019-01-21T14:15:31.662Z,-2.30
2019-01-21T14:18:18.729Z,-2.30
2019-01-21T14:21:11.886Z,-2.30
2019-01-21T14:23:56.918Z,-2.40
2019-01-21T14:26:29.951Z,-2.40
2019-01-21T14:29:08.880Z,-2.50
2019-01-21T14:31:45.226Z,-2.50
2019-01-21T14:34:30.593Z,-2.50
2019-01-21T14:37:37.264Z,-2.60
2019-01-21T14:40:10.445Z,-2.50
2019-01-21T14:42:55.593Z,-2.60
2019-01-21T14:45:43.422Z,-2.60
2019-01-21T14:48:29.088Z,-2.50
2019-01-21T14:50:59.506Z,-2.50
2019-01-21T14:53:35.886Z,-2.50
2019-01-21T14:56:12.236Z,-2.40
2019-01-21T14:58:42.457Z,-2.40
2019-01-21T15:01:12.796Z,-2.50
2019-01-21T15:03:59.628Z,-2.50
2019-01-21T15:06:35.770Z,-2.50
2019-01-21T15:09:18.212Z,-2.50
2019-01-21T15:11:51.202Z,-2.50
2019-01-21T15:14:39.825Z,-2.60
2019-01-21T15:17:16.073Z,-2.50
2019-01-21T15:19:43.260Z,-2.60
2019-01-21T15:22:31.700Z,-2.60
2019-01-21T15:25:11.134Z,-2.60
2019-01-21T15:27:52.806Z,-2.60
2019-01-21T15:30:40.996Z,-2.60
2019-01-21T15:33:11.518Z,-2.70
2019-01-21T15:35:44.579Z,-2.70
2019-01-21T15:38:20.970Z,-2.70
2019-01-21T15:41:06.032Z,-2.70
2019-01-21T15:43:51.477Z,-2.60
2019-01-21T15:46:36.838Z,-2.60
2019-01-21T15:49:16.144Z,-2.60
2019-01-21T15:52:01.226Z,-2.60
2019-01-21T15:54:44.668Z,-2.60
2019-01-21T15:57:38.694Z,-2.50
2019-01-21T16:00:25.565Z,-2.60
2019-01-21T16:02:58.757Z,-2.60
2019-01-21T16:05:28.964Z,-2.60
2019-01-21T16:08:01.867Z,-2.50
2019-01-21T16:10:44.351Z,-2.50
2019-01-21T16:13:20.701Z,-2.60
2019-01-21T16:16:22.950Z,-2.60
2019-01-21T16:18:56.171Z,-2.50
2019-01-21T16:21:44.412Z,-2.60
2019-01-21T16:24:20.872Z,-2.60
2019-01-21T16:26:51.090Z,-2.70
2019-01-21T16:29:21.336Z,-2.70
2019-01-21T16:31:50.840Z,-2.70
2019-01-21T16:34:24.031Z,-2.60
2019-01-21T16:36:57.287Z,-2.70
2019-01-21T16:39:44.424Z,-2.60
2019-01-21T16:42:13.659Z,-2.60
2019-01-21T16:44:41.353Z,-2.60
2019-01-21T16:47:07.706Z,-2.70
2019-01-21T16:49:34.521Z,-2.60
2019-01-21T16:52:01.331Z,-2.70
2019-01-21T16:54:27.837Z,-2.80
2019-01-21T16:56:54.474Z,-2.80
2019-01-21T16:59:22.085Z,-2.80
2019-01-21T17:01:48.645Z,-2.80
2019-01-21T17:04:15.096Z,-2.70
2019-01-21T17:06:41.556Z,-2.70
2019-01-21T17:09:09.935Z,-2.70
2019-01-21T17:11:36.757Z,-2.70
2019-01-21T17:14:05.329Z,-2.60
2019-01-21T17:16:31.704Z,-2.70
2019-01-21T17:18:58.231Z,-2.60
2019-01-21T17:21:27.039Z,-2.60
2019-01-21T17:23:52.857Z,-2.70
2019-01-21T17:26:19.221Z,-2.60
2019-01-21T17:28:45.753Z,-2.60
2019-01-21T17:31:12.114Z,-2.60
2019-01-21T17:33:38.595Z,-2.60
2019-01-21T17:36:05.378Z,-2.60
2019-01-21T17:38:32.410Z,-2.60
2019-01-21T17:40:59.542Z,-2.60
2019-01-21T17:43:26.008Z,-2.60
2019-01-21T17:45:52.711Z,-2.60
2019-01-21T17:48:20.052Z,-2.70
2019-01-21T17:50:46.624Z,-2.60
2019-01-21T17:53:12.998Z,-2.50
2019-01-21T17:55:39.399Z,-2.60
2019-01-21T17:58:05.921Z,-2.60
2019-01-21T18:00:32.383Z,-2.60
2019-01-21T18:02:59.838Z,-2.60
2019-01-21T18:05:26.690Z,-2.60
2019-01-21T18:07:53.428Z,-2.70
2019-01-21T18:10:20.982Z,-2.70
2019-01-21T18:12:48.654Z,-2.60
2019-01-21T18:15:15.201Z,-2.50
2019-01-21T18:17:41.661Z,-2.50
2019-01-21T18:20:11.525Z,-2.60
2019-01-21T18:22:37.950Z,-2.70
2019-01-21T18:25:07.179Z,-2.60
2019-01-21T18:27:33.514Z,-2.70
2019-01-21T18:30:01.800Z,-2.70
2019-01-21T18:32:28.909Z,-2.70
2019-01-21T18:34:55.373Z,-2.70
2019-01-21T18:37:21.777Z,-2.70
2019-01-21T18:39:50.225Z,-2.70
2019-01-21T18:42:16.559Z,-2.70
2019-01-21T18:44:42.990Z,-2.60
2019-01-21T18:47:09.399Z,-2.60
2019-01-21T18:49:35.943Z,-2.70
2019-01-21T18:52:02.368Z,-2.70
2019-01-21T18:54:29.015Z,-2.70
2019-01-21T18:56:55.515Z,-2.70
2019-01-21T18:59:21.941Z,-2.70
2019-01-21T19:01:48.362Z,-2.70
2019-01-21T19:04:14.764Z,-2.70
2019-01-21T19:06:41.156Z,-2.60
2019-01-21T19:09:07.642Z,-2.60
2019-01-21T19:11:34.491Z,-2.70
2019-01-21T19:14:00.958Z,-2.60
2019-01-21T19:16:27.408Z,-2.60
2019-01-21T19:18:53.781Z,-3.00
2019-01-21T19:21:21.503Z,-2.60
2019-01-21T19:23:48.062Z,-2.60
2019-01-21T19:26:16.356Z,-2.70
2019-01-21T19:28:43.380Z,-2.60
2019-01-21T19:31:10.991Z,-2.60
2019-01-21T19:33:37.635Z,-2.60
2019-01-21T19:36:04.193Z,-2.70
2019-01-21T19:38:31.240Z,-2.60
2019-01-21T19:40:58.646Z,-2.70
2019-01-21T19:43:25.543Z,-2.60
2019-01-21T19:45:52.204Z,-2.70
2019-01-21T19:48:19.443Z,-2.70
2019-01-21T19:50:46.883Z,-2.70
2019-01-21T19:53:13.350Z,-2.70
2019-01-21T19:55:40.887Z,-2.70
2019-01-21T19:58:07.954Z,-2.70
2019-01-21T20:00:34.749Z,-2.70
2019-01-21T20:03:01.243Z,-2.70
2019-01-21T20:05:27.666Z,-2.70
2019-01-21T20:07:54.330Z,-2.70
2019-01-21T20:10:22.627Z,-2.70
2019-01-21T20:12:49.493Z,-2.70
2019-01-21T20:15:17.356Z,-2.70
2019-01-21T20:17:43.934Z,-2.70
2019-01-21T20:20:13.813Z,-2.70
2019-01-21T20:22:40.261Z,-2.70
2019-01-21T20:25:08.842Z,-2.70
2019-01-21T20:27:35.280Z,-2.70
2019-01-21T20:30:01.800Z,-2.70
2019-01-21T20:32:28.403Z,-2.70
2019-01-21T20:34:54.816Z,-2.70
2019-01-21T20:37:21.221Z,-2.70
2019-01-21T20:39:48.360Z,-2.70
2019-01-21T20:42:15.551Z,-2.70
2019-01-21T20:44:42.432Z,-2.70
2019-01-21T20:47:08.879Z,-2.70
2019-01-21T20:49:35.711Z,-2.70
2019-01-21T20:52:03.436Z,-2.70
2019-01-21T20:54:29.992Z,-2.70
2019-01-21T20:56:56.456Z,-2.70
2019-01-21T20:59:22.815Z,-2.80
2019-01-21T21:01:49.255Z,-2.80
2019-01-21T21:04:15.697Z,-2.80
2019-01-21T21:06:42.436Z,-2.70
2019-01-21T21:09:08.957Z,-2.80
2019-01-21T21:11:35.757Z,-2.80
2019-01-21T21:14:03.144Z,-2.80
2019-01-21T21:16:30.723Z,-2.80
2019-01-21T21:18:57.301Z,-2.80
2019-01-21T21:21:24.331Z,-2.80
2019-01-21T21:23:52.104Z,-2.80
2019-01-21T21:26:19.742Z,-2.80
2019-01-21T21:28:47.360Z,-2.90
2019-01-21T21:31:15.415Z,-2.80
2019-01-21T21:33:43.144Z,-2.80
2019-01-21T21:36:10.732Z,-2.90
2019-01-21T21:38:39.823Z,-2.80
2019-01-21T21:41:07.454Z,-2.80
2019-01-21T21:43:34.679Z,-2.70
2019-01-21T21:46:03.129Z,-2.70
2019-01-21T21:48:31.828Z,-2.70
2019-01-21T21:51:00.522Z,-2.80
2019-01-21T21:53:28.018Z,-2.70
2019-01-21T21:55:55.436Z,-2.80
2019-01-21T21:58:22.762Z,-2.80
2019-01-21T22:00:49.469Z,-2.80
2019-01-21T22:03:16.159Z,-2.70
2019-01-21T22:05:42.750Z,-2.70
2019-01-21T22:08:09.352Z,-2.60
2019-01-21T22:10:35.915Z,-2.70
2019-01-21T22:13:02.907Z,-2.70
2019-01-21T22:15:29.480Z,-2.70
2019-01-21T22:17:56.547Z,-2.80
2019-01-21T22:20:24.598Z,-2.70
2019-01-21T22:22:51.100Z,-2.70
2019-01-21T22:25:18.003Z,-2.80
2019-01-21T22:27:44.358Z,-2.80
2019-01-21T22:30:19.006Z,-2.80
2019-01-21T22:32:45.407Z,-2.90
2019-01-21T22:35:11.997Z,-2.90
2019-01-21T22:37:38.430Z,-3.00
2019-01-21T22:40:11.422Z,-3.00
2019-01-21T22:42:38.314Z,-3.00
2019-01-21T22:45:07.212Z,-3.10
2019-01-21T22:47:34.763Z,-3.10
2019-01-21T22:50:02.103Z,-3.10
2019-01-21T22:52:30.180Z,-3.10
2019-01-21T22:54:57.198Z,-3.10
2019-01-21T22:57:24.652Z,-3.20
2019-01-21T22:59:53.069Z,-3.20
2019-01-21T23:02:20.752Z,-3.20
2019-01-21T23:04:48.318Z,-3.30
2019-01-21T23:07:15.974Z,-3.30
2019-01-21T23:09:42.899Z,-3.30
2019-01-21T23:12:10.192Z,-3.40
2019-01-21T23:14:37.510Z,-3.40
2019-01-21T23:17:06.851Z,-3.40
2019-01-21T23:19:33.884Z,-3.40
2019-01-21T23:22:00.697Z,-3.40
2019-01-21T23:24:27.023Z,-3.30
2019-01-21T23:26:53.523Z,-3.40
2019-01-21T23:29:20.811Z,-3.40
2019-01-21T23:31:48.643Z,-3.50
2019-01-21T23:34:15.824Z,-3.40
2019-01-21T23:36:42.831Z,-3.40
2019-01-21T23:39:09.269Z,-3.40
2019-01-21T23:41:35.774Z,-3.40
2019-01-21T23:44:02.161Z,-3.40
2019-01-21T23:46:28.514Z,-3.40
2019-01-21T23:48:54.907Z,-3.50
2019-01-21T23:51:21.246Z,-3.40
2019-01-21T23:53:47.931Z,-3.50
2019-01-21T23:56:14.344Z,-3.50
2019-01-21T23:58:40.710Z,-3.60
